Hovedside
METAR-TAF:

METAR-TAF

Lufthavner :

Ronneby lufthavn

Ronneby, Sverige

breddegrad: 56-16N, lengdegrad: 015-17E, høyde over havet: 58 m

Gjeldene værobservasjon

Denne rapporten ble laget for 20 minutter siden, klokken 12:20 UTC
Vind 8 kt fra Vest, skiftende mellom Sørvest og Vest-nordvest
Temperatur 6°C
Luftfuktighet 65%
Trykk 1009 hPa
Sikt 10 km eller mer
Få skyer i en høyde av 2500 ft

METAR: ESDF 241220Z 27008KT 220V300 9999 FEW025 06/M00 Q1009

Tid: 13:40 (12:40 UTC)

Varsel

Denne rapporten ble laget for 1 time og 10 minutter siden, klokken 11:30 UTC
Varsel gyldig fra 24. klokken 12 UTC til 24. klokken 21 UTC
Vind 8 kt fra Vest-nordvest
Sikt 10 km eller mer
ingen skyer under 1500 m og ingen bygeskyer

TAF: ESDF 241130Z 2412/2421 29008KT CAVOK RMK MIL

Værobservasjoner og værvarsel for over 4000 flyplasser (METAR- og TAF-rapporter).

Tilgjengelige stasjoner er representert av de røde og gule prikkene på kartet.

Hold musepekeren over prikken for å se navnet på stasjonen.

Klikk så for å se værobservasjoner og -varsler.

For å forandre kartet kan du klikke på den grønne knappen med svart kryss for å zoome inn, på den grønne knappen med strek for å zoome ut, eller på de grønne pilene for å se tilstøtende kart.


METAR-TAF: